sensor_id;sensor_type;location;lat;lon;timestamp;P1;durP1;ratioP1;P2;durP2;ratioP2
25509;SDS011;13413;52.336;21.200;2023-04-23T00:00:04;35.00;;;23.40;;
25509;SDS011;13413;52.336;21.200;2023-04-23T00:03:01;40.50;;;23.80;;
25509;SDS011;13413;52.336;21.200;2023-04-23T00:05:59;43.60;;;23.70;;
25509;SDS011;13413;52.336;21.200;2023-04-23T00:08:56;44.30;;;25.00;;
25509;SDS011;13413;52.336;21.200;2023-04-23T00:11:54;38.60;;;24.50;;
25509;SDS011;13413;52.336;21.200;2023-04-23T00:14:49;33.50;;;23.00;;
25509;SDS011;13413;52.336;21.200;2023-04-23T00:20:35;36.60;;;22.60;;
25509;SDS011;13413;52.336;21.200;2023-04-23T00:23:29;43.30;;;24.70;;
25509;SDS011;13413;52.336;21.200;2023-04-23T00:26:23;39.20;;;25.10;;
25509;SDS011;13413;52.336;21.200;2023-04-23T00:29:17;44.10;;;22.80;;
25509;SDS011;13413;52.336;21.200;2023-04-23T00:32:10;47.00;;;25.00;;
25509;SDS011;13413;52.336;21.200;2023-04-23T00:35:05;39.20;;;25.10;;
25509;SDS011;13413;52.336;21.200;2023-04-23T00:38:01;42.60;;;22.70;;
25509;SDS011;13413;52.336;21.200;2023-04-23T00:40:55;34.70;;;22.00;;
25509;SDS011;13413;52.336;21.200;2023-04-23T00:43:49;36.80;;;23.10;;
25509;SDS011;13413;52.336;21.200;2023-04-23T00:46:44;32.30;;;21.90;;
25509;SDS011;13413;52.336;21.200;2023-04-23T00:49:42;37.60;;;23.70;;
25509;SDS011;13413;52.336;21.200;2023-04-23T00:52:36;35.70;;;23.10;;
25509;SDS011;13413;52.336;21.200;2023-04-23T00:55:30;33.50;;;21.70;;
25509;SDS011;13413;52.336;21.200;2023-04-23T00:58:25;39.40;;;23.00;;
25509;SDS011;13413;52.336;21.200;2023-04-23T01:01:21;40.00;;;22.40;;
25509;SDS011;13413;52.336;21.200;2023-04-23T01:04:17;34.50;;;21.90;;
25509;SDS011;13413;52.336;21.200;2023-04-23T01:07:12;37.80;;;22.80;;
25509;SDS011;13413;52.336;21.200;2023-04-23T01:10:08;39.20;;;22.90;;
25509;SDS011;13413;52.336;21.200;2023-04-23T01:13:02;35.90;;;22.10;;
25509;SDS011;13413;52.336;21.200;2023-04-23T01:15:58;40.50;;;23.40;;
25509;SDS011;13413;52.336;21.200;2023-04-23T01:18:52;38.70;;;23.10;;
25509;SDS011;13413;52.336;21.200;2023-04-23T01:21:46;41.30;;;23.90;;
25509;SDS011;13413;52.336;21.200;2023-04-23T01:24:42;42.30;;;24.70;;
25509;SDS011;13413;52.336;21.200;2023-04-23T01:27:36;44.70;;;24.50;;
25509;SDS011;13413;52.336;21.200;2023-04-23T01:30:31;37.90;;;24.80;;
25509;SDS011;13413;52.336;21.200;2023-04-23T01:33:26;31.80;;;22.70;;
25509;SDS011;13413;52.336;21.200;2023-04-23T01:42:14;38.20;;;22.80;;
25509;SDS011;13413;52.336;21.200;2023-04-23T01:45:09;38.60;;;22.80;;
25509;SDS011;13413;52.336;21.200;2023-04-23T01:48:03;34.80;;;22.00;;
25509;SDS011;13413;52.336;21.200;2023-04-23T01:50:58;34.50;;;22.50;;
25509;SDS011;13413;52.336;21.200;2023-04-23T01:53:52;41.70;;;23.20;;
25509;SDS011;13413;52.336;21.200;2023-04-23T01:56:47;41.40;;;23.00;;
25509;SDS011;13413;52.336;21.200;2023-04-23T01:59:42;41.50;;;21.80;;
25509;SDS011;13413;52.336;21.200;2023-04-23T02:02:38;31.30;;;20.30;;
25509;SDS011;13413;52.336;21.200;2023-04-23T02:05:33;31.60;;;20.20;;
25509;SDS011;13413;52.336;21.200;2023-04-23T02:08:27;35.80;;;20.80;;
25509;SDS011;13413;52.336;21.200;2023-04-23T02:11:21;23.60;;;15.00;;
25509;SDS011;13413;52.336;21.200;2023-04-23T02:14:16;30.60;;;20.80;;
25509;SDS011;13413;52.336;21.200;2023-04-23T02:17:10;40.40;;;21.00;;
25509;SDS011;13413;52.336;21.200;2023-04-23T02:20:04;30.80;;;20.80;;
25509;SDS011;13413;52.336;21.200;2023-04-23T02:23:00;29.90;;;19.70;;
25509;SDS011;13413;52.336;21.200;2023-04-23T02:25:54;32.10;;;20.70;;
25509;SDS011;13413;52.336;21.200;2023-04-23T02:28:48;34.50;;;21.10;;
25509;SDS011;13413;52.336;21.200;2023-04-23T02:31:42;32.80;;;20.30;;
25509;SDS011;13413;52.336;21.200;2023-04-23T02:34:36;31.10;;;19.90;;
25509;SDS011;13413;52.336;21.200;2023-04-23T02:37:30;36.10;;;20.10;;
25509;SDS011;13413;52.336;21.200;2023-04-23T02:43:18;31.50;;;19.00;;
25509;SDS011;13413;52.336;21.200;2023-04-23T02:46:12;27.60;;;18.70;;
25509;SDS011;13413;52.336;21.200;2023-04-23T02:49:06;30.90;;;18.70;;
25509;SDS011;13413;52.336;21.200;2023-04-23T02:51:59;29.40;;;19.20;;
25509;SDS011;13413;52.336;21.200;2023-04-23T02:54:54;28.20;;;19.60;;
25509;SDS011;13413;52.336;21.200;2023-04-23T02:57:49;28.10;;;19.00;;
25509;SDS011;13413;52.336;21.200;2023-04-23T03:00:43;26.70;;;18.60;;
25509;SDS011;13413;52.336;21.200;2023-04-23T03:03:37;34.90;;;18.80;;
25509;SDS011;13413;52.336;21.200;2023-04-23T03:06:32;29.80;;;18.30;;
25509;SDS011;13413;52.336;21.200;2023-04-23T03:09:26;27.80;;;18.90;;
25509;SDS011;13413;52.336;21.200;2023-04-23T03:12:20;27.80;;;17.70;;
25509;SDS011;13413;52.336;21.200;2023-04-23T03:15:14;25.40;;;17.90;;
25509;SDS011;13413;52.336;21.200;2023-04-23T03:18:09;33.30;;;17.40;;
25509;SDS011;13413;52.336;21.200;2023-04-23T03:21:03;27.70;;;18.10;;
25509;SDS011;13413;52.336;21.200;2023-04-23T03:23:57;24.80;;;16.80;;
25509;SDS011;13413;52.336;21.200;2023-04-23T03:26:51;24.10;;;17.90;;
25509;SDS011;13413;52.336;21.200;2023-04-23T03:29:45;24.50;;;16.80;;
25509;SDS011;13413;52.336;21.200;2023-04-23T03:32:39;29.70;;;17.70;;
25509;SDS011;13413;52.336;21.200;2023-04-23T03:35:33;27.00;;;17.20;;
25509;SDS011;13413;52.336;21.200;2023-04-23T03:38:26;29.20;;;17.30;;
25509;SDS011;13413;52.336;21.200;2023-04-23T03:41:20;29.30;;;16.50;;
25509;SDS011;13413;52.336;21.200;2023-04-23T03:44:15;23.50;;;15.80;;
25509;SDS011;13413;52.336;21.200;2023-04-23T03:47:08;22.70;;;15.80;;
25509;SDS011;13413;52.336;21.200;2023-04-23T03:50:03;23.70;;;16.70;;
25509;SDS011;13413;52.336;21.200;2023-04-23T04:01:43;27.00;;;17.10;;
25509;SDS011;13413;52.336;21.200;2023-04-23T04:04:37;24.80;;;15.70;;
25509;SDS011;13413;52.336;21.200;2023-04-23T04:07:31;22.70;;;16.20;;
25509;SDS011;13413;52.336;21.200;2023-04-23T04:10:25;27.80;;;16.90;;
25509;SDS011;13413;52.336;21.200;2023-04-23T04:13:19;31.60;;;17.80;;
25509;SDS011;13413;52.336;21.200;2023-04-23T04:16:13;24.80;;;14.80;;
25509;SDS011;13413;52.336;21.200;2023-04-23T04:19:07;25.90;;;16.80;;
25509;SDS011;13413;52.336;21.200;2023-04-23T04:22:01;22.50;;;14.80;;
25509;SDS011;13413;52.336;21.200;2023-04-23T04:24:55;25.20;;;15.80;;
25509;SDS011;13413;52.336;21.200;2023-04-23T04:27:49;22.80;;;15.40;;
25509;SDS011;13413;52.336;21.200;2023-04-23T04:30:43;24.00;;;15.60;;
25509;SDS011;13413;52.336;21.200;2023-04-23T04:33:37;23.70;;;15.70;;
25509;SDS011;13413;52.336;21.200;2023-04-23T04:36:31;23.70;;;14.10;;
25509;SDS011;13413;52.336;21.200;2023-04-23T04:39:25;22.50;;;15.40;;
25509;SDS011;13413;52.336;21.200;2023-04-23T04:42:19;28.50;;;15.40;;
25509;SDS011;13413;52.336;21.200;2023-04-23T04:45:13;25.80;;;14.40;;
25509;SDS011;13413;52.336;21.200;2023-04-23T04:48:07;21.60;;;14.30;;
25509;SDS011;13413;52.336;21.200;2023-04-23T04:51:01;24.90;;;15.00;;
25509;SDS011;13413;52.336;21.200;2023-04-23T04:53:55;25.70;;;15.80;;
25509;SDS011;13413;52.336;21.200;2023-04-23T04:56:49;25.80;;;15.30;;
25509;SDS011;13413;52.336;21.200;2023-04-23T04:59:44;22.60;;;13.90;;
25509;SDS011;13413;52.336;21.200;2023-04-23T05:02:38;23.00;;;15.20;;
25509;SDS011;13413;52.336;21.200;2023-04-23T05:05:32;21.00;;;14.50;;
25509;SDS011;13413;52.336;21.200;2023-04-23T05:08:26;27.40;;;15.60;;
25509;SDS011;13413;52.336;21.200;2023-04-23T05:11:20;19.50;;;14.60;;
25509;SDS011;13413;52.336;21.200;2023-04-23T05:14:14;22.70;;;15.70;;
25509;SDS011;13413;52.336;21.200;2023-04-23T05:20:03;22.70;;;13.90;;
25509;SDS011;13413;52.336;21.200;2023-04-23T05:22:58;25.30;;;15.40;;
25509;SDS011;13413;52.336;21.200;2023-04-23T05:25:52;22.60;;;14.30;;
25509;SDS011;13413;52.336;21.200;2023-04-23T05:28:46;20.60;;;13.80;;
25509;SDS011;13413;52.336;21.200;2023-04-23T05:31:40;20.70;;;14.00;;
25509;SDS011;13413;52.336;21.200;2023-04-23T05:34:34;23.50;;;13.40;;
25509;SDS011;13413;52.336;21.200;2023-04-23T05:37:28;16.60;;;12.60;;
25509;SDS011;13413;52.336;21.200;2023-04-23T05:43:16;23.50;;;12.90;;
25509;SDS011;13413;52.336;21.200;2023-04-23T05:46:10;17.80;;;11.90;;
25509;SDS011;13413;52.336;21.200;2023-04-23T05:49:05;21.80;;;12.80;;
25509;SDS011;13413;52.336;21.200;2023-04-23T05:51:59;18.30;;;12.10;;
25509;SDS011;13413;52.336;21.200;2023-04-23T05:54:53;21.10;;;12.40;;
25509;SDS011;13413;52.336;21.200;2023-04-23T05:57:47;29.90;;;12.00;;
25509;SDS011;13413;52.336;21.200;2023-04-23T06:00:41;15.50;;;12.10;;
25509;SDS011;13413;52.336;21.200;2023-04-23T06:03:36;25.80;;;14.20;;
25509;SDS011;13413;52.336;21.200;2023-04-23T06:06:29;33.50;;;17.10;;
25509;SDS011;13413;52.336;21.200;2023-04-23T06:09:23;47.50;;;25.40;;
25509;SDS011;13413;52.336;21.200;2023-04-23T06:22:27;14.70;;;10.10;;
25509;SDS011;13413;52.336;21.200;2023-04-23T06:25:21;15.60;;;9.60;;
25509;SDS011;13413;52.336;21.200;2023-04-23T06:28:15;14.70;;;8.80;;
25509;SDS011;13413;52.336;21.200;2023-04-23T06:31:09;15.00;;;10.70;;
25509;SDS011;13413;52.336;21.200;2023-04-23T06:34:03;12.50;;;9.10;;
25509;SDS011;13413;52.336;21.200;2023-04-23T06:36:57;12.90;;;9.50;;
25509;SDS011;13413;52.336;21.200;2023-04-23T06:39:51;12.30;;;9.20;;
25509;SDS011;13413;52.336;21.200;2023-04-23T06:42:45;14.00;;;8.10;;
25509;SDS011;13413;52.336;21.200;2023-04-23T06:45:39;16.40;;;9.50;;
25509;SDS011;13413;52.336;21.200;2023-04-23T06:48:33;22.80;;;15.90;;
25509;SDS011;13413;52.336;21.200;2023-04-23T06:51:27;12.80;;;8.40;;
25509;SDS011;13413;52.336;21.200;2023-04-23T06:54:22;9.90;;;7.70;;
25509;SDS011;13413;52.336;21.200;2023-04-23T06:57:16;16.20;;;10.30;;
25509;SDS011;13413;52.336;21.200;2023-04-23T07:00:11;13.80;;;9.40;;
25509;SDS011;13413;52.336;21.200;2023-04-23T07:03:06;11.40;;;7.10;;
25509;SDS011;13413;52.336;21.200;2023-04-23T07:06:00;12.10;;;7.50;;
25509;SDS011;13413;52.336;21.200;2023-04-23T07:08:55;9.20;;;7.50;;
25509;SDS011;13413;52.336;21.200;2023-04-23T07:11:49;9.80;;;7.00;;
25509;SDS011;13413;52.336;21.200;2023-04-23T07:14:44;13.10;;;7.90;;
25509;SDS011;13413;52.336;21.200;2023-04-23T07:17:38;9.80;;;6.40;;
25509;SDS011;13413;52.336;21.200;2023-04-23T07:20:32;13.30;;;5.90;;
25509;SDS011;13413;52.336;21.200;2023-04-23T07:26:20;10.90;;;6.30;;
25509;SDS011;13413;52.336;21.200;2023-04-23T07:32:07;7.40;;;5.30;;
25509;SDS011;13413;52.336;21.200;2023-04-23T07:35:01;33.20;;;21.10;;
25509;SDS011;13413;52.336;21.200;2023-04-23T07:37:56;13.10;;;7.90;;
25509;SDS011;13413;52.336;21.200;2023-04-23T07:40:50;8.40;;;7.30;;
25509;SDS011;13413;52.336;21.200;2023-04-23T07:43:44;14.70;;;10.10;;
25509;SDS011;13413;52.336;21.200;2023-04-23T07:46:38;12.20;;;9.10;;
25509;SDS011;13413;52.336;21.200;2023-04-23T07:49:32;8.80;;;6.80;;
25509;SDS011;13413;52.336;21.200;2023-04-23T07:52:30;7.60;;;5.40;;
25509;SDS011;13413;52.336;21.200;2023-04-23T07:55:24;8.70;;;6.80;;
25509;SDS011;13413;52.336;21.200;2023-04-23T07:58:18;11.80;;;8.10;;
25509;SDS011;13413;52.336;21.200;2023-04-23T08:01:13;8.90;;;6.40;;
25509;SDS011;13413;52.336;21.200;2023-04-23T08:04:07;14.60;;;8.50;;
25509;SDS011;13413;52.336;21.200;2023-04-23T08:07:02;14.20;;;9.30;;
25509;SDS011;13413;52.336;21.200;2023-04-23T08:09:56;15.70;;;9.10;;
25509;SDS011;13413;52.336;21.200;2023-04-23T08:12:50;6.30;;;5.60;;
25509;SDS011;13413;52.336;21.200;2023-04-23T08:15:44;8.20;;;5.50;;
25509;SDS011;13413;52.336;21.200;2023-04-23T08:18:38;8.10;;;6.00;;
25509;SDS011;13413;52.336;21.200;2023-04-23T08:21:32;7.20;;;6.20;;
25509;SDS011;13413;52.336;21.200;2023-04-23T08:24:26;9.90;;;5.70;;
25509;SDS011;13413;52.336;21.200;2023-04-23T08:27:20;6.70;;;4.50;;
25509;SDS011;13413;52.336;21.200;2023-04-23T08:30:14;8.20;;;4.30;;
25509;SDS011;13413;52.336;21.200;2023-04-23T08:41:42;8.10;;;4.20;;
25509;SDS011;13413;52.336;21.200;2023-04-23T08:45:06;6.40;;;4.10;;
25509;SDS011;13413;52.336;21.200;2023-04-23T08:48:02;5.30;;;3.10;;
25509;SDS011;13413;52.336;21.200;2023-04-23T08:50:57;6.70;;;4.10;;
25509;SDS011;13413;52.336;21.200;2023-04-23T08:53:55;6.90;;;3.90;;
25509;SDS011;13413;52.336;21.200;2023-04-23T08:56:50;4.90;;;3.80;;
25509;SDS011;13413;52.336;21.200;2023-04-23T08:59:46;6.50;;;4.20;;
25509;SDS011;13413;52.336;21.200;2023-04-23T09:03:01;7.50;;;3.70;;
25509;SDS011;13413;52.336;21.200;2023-04-23T09:05:55;5.00;;;3.90;;
25509;SDS011;13413;52.336;21.200;2023-04-23T09:08:50;4.00;;;3.40;;
25509;SDS011;13413;52.336;21.200;2023-04-23T09:11:46;6.80;;;3.40;;
25509;SDS011;13413;52.336;21.200;2023-04-23T09:14:40;6.70;;;4.20;;
25509;SDS011;13413;52.336;21.200;2023-04-23T09:17:33;6.90;;;3.60;;
25509;SDS011;13413;52.336;21.200;2023-04-23T09:20:29;7.40;;;3.80;;
25509;SDS011;13413;52.336;21.200;2023-04-23T09:23:23;11.00;;;5.10;;
25509;SDS011;13413;52.336;21.200;2023-04-23T09:26:19;5.10;;;3.70;;
25509;SDS011;13413;52.336;21.200;2023-04-23T09:29:14;4.50;;;3.40;;
25509;SDS011;13413;52.336;21.200;2023-04-23T09:32:10;4.60;;;3.30;;
25509;SDS011;13413;52.336;21.200;2023-04-23T09:35:05;7.00;;;3.30;;
25509;SDS011;13413;52.336;21.200;2023-04-23T09:38:01;6.70;;;3.10;;
25509;SDS011;13413;52.336;21.200;2023-04-23T09:40:58;5.90;;;3.20;;
25509;SDS011;13413;52.336;21.200;2023-04-23T09:44:11;8.90;;;3.60;;
25509;SDS011;13413;52.336;21.200;2023-04-23T09:47:08;7.80;;;3.50;;
25509;SDS011;13413;52.336;21.200;2023-04-23T09:50:03;4.90;;;3.50;;
25509;SDS011;13413;52.336;21.200;2023-04-23T09:55:50;4.70;;;3.60;;
25509;SDS011;13413;52.336;21.200;2023-04-23T09:58:47;8.10;;;3.60;;
25509;SDS011;13413;52.336;21.200;2023-04-23T10:01:41;7.00;;;3.80;;
25509;SDS011;13413;52.336;21.200;2023-04-23T10:04:37;6.10;;;3.10;;
25509;SDS011;13413;52.336;21.200;2023-04-23T10:07:31;5.60;;;3.50;;
25509;SDS011;13413;52.336;21.200;2023-04-23T10:10:26;5.00;;;3.20;;
25509;SDS011;13413;52.336;21.200;2023-04-23T10:13:21;3.90;;;3.10;;
25509;SDS011;13413;52.336;21.200;2023-04-23T10:19:10;7.70;;;3.80;;
25509;SDS011;13413;52.336;21.200;2023-04-23T10:22:09;3.60;;;3.20;;
25509;SDS011;13413;52.336;21.200;2023-04-23T10:25:07;5.70;;;3.00;;
25509;SDS011;13413;52.336;21.200;2023-04-23T10:28:06;9.90;;;3.30;;
25509;SDS011;13413;52.336;21.200;2023-04-23T10:31:02;2.90;;;2.60;;
25509;SDS011;13413;52.336;21.200;2023-04-23T10:36:49;3.70;;;3.00;;
25509;SDS011;13413;52.336;21.200;2023-04-23T10:39:45;3.70;;;2.70;;
25509;SDS011;13413;52.336;21.200;2023-04-23T10:42:41;4.40;;;3.10;;
25509;SDS011;13413;52.336;21.200;2023-04-23T10:45:37;4.50;;;3.10;;
25509;SDS011;13413;52.336;21.200;2023-04-23T10:48:37;3.20;;;2.90;;
25509;SDS011;13413;52.336;21.200;2023-04-23T10:51:59;2.90;;;2.80;;
25509;SDS011;13413;52.336;21.200;2023-04-23T10:57:55;3.90;;;2.80;;
25509;SDS011;13413;52.336;21.200;2023-04-23T11:00:50;7.80;;;2.70;;
25509;SDS011;13413;52.336;21.200;2023-04-23T11:03:44;4.80;;;3.10;;
25509;SDS011;13413;52.336;21.200;2023-04-23T11:06:56;5.20;;;3.40;;
25509;SDS011;13413;52.336;21.200;2023-04-23T11:09:55;5.50;;;3.20;;
25509;SDS011;13413;52.336;21.200;2023-04-23T11:12:50;9.40;;;2.90;;
25509;SDS011;13413;52.336;21.200;2023-04-23T11:15:46;9.40;;;3.30;;
25509;SDS011;13413;52.336;21.200;2023-04-23T11:22:01;3.90;;;3.20;;
25509;SDS011;13413;52.336;21.200;2023-04-23T11:24:55;5.60;;;2.80;;
25509;SDS011;13413;52.336;21.200;2023-04-23T11:27:47;4.50;;;3.20;;
25509;SDS011;13413;52.336;21.200;2023-04-23T11:30:42;3.10;;;2.70;;
25509;SDS011;13413;52.336;21.200;2023-04-23T11:33:35;6.60;;;2.80;;
25509;SDS011;13413;52.336;21.200;2023-04-23T11:36:28;4.20;;;3.00;;
25509;SDS011;13413;52.336;21.200;2023-04-23T11:39:22;3.80;;;3.10;;
25509;SDS011;13413;52.336;21.200;2023-04-23T11:42:16;6.90;;;3.10;;
25509;SDS011;13413;52.336;21.200;2023-04-23T11:45:14;4.00;;;2.80;;
25509;SDS011;13413;52.336;21.200;2023-04-23T11:48:10;4.80;;;2.90;;
25509;SDS011;13413;52.336;21.200;2023-04-23T11:51:03;3.70;;;3.30;;
25509;SDS011;13413;52.336;21.200;2023-04-23T11:54:02;5.20;;;3.20;;
25509;SDS011;13413;52.336;21.200;2023-04-23T11:56:55;5.20;;;3.20;;
25509;SDS011;13413;52.336;21.200;2023-04-23T11:59:55;6.90;;;3.90;;
25509;SDS011;13413;52.336;21.200;2023-04-23T12:03:05;8.80;;;3.60;;
25509;SDS011;13413;52.336;21.200;2023-04-23T12:05:59;5.50;;;3.20;;
25509;SDS011;13413;52.336;21.200;2023-04-23T12:08:53;6.20;;;3.60;;
25509;SDS011;13413;52.336;21.200;2023-04-23T12:11:47;5.00;;;3.50;;
25509;SDS011;13413;52.336;21.200;2023-04-23T12:14:42;6.80;;;3.50;;
25509;SDS011;13413;52.336;21.200;2023-04-23T12:17:37;3.20;;;2.90;;
25509;SDS011;13413;52.336;21.200;2023-04-23T12:20:31;3.70;;;3.10;;
25509;SDS011;13413;52.336;21.200;2023-04-23T12:23:26;5.00;;;3.30;;
25509;SDS011;13413;52.336;21.200;2023-04-23T12:26:20;3.30;;;2.80;;
25509;SDS011;13413;52.336;21.200;2023-04-23T12:29:16;5.00;;;3.50;;
25509;SDS011;13413;52.336;21.200;2023-04-23T12:32:11;4.50;;;3.10;;
25509;SDS011;13413;52.336;21.200;2023-04-23T12:35:07;5.00;;;3.40;;
25509;SDS011;13413;52.336;21.200;2023-04-23T12:38:01;3.70;;;3.20;;
25509;SDS011;13413;52.336;21.200;2023-04-23T12:40:57;7.30;;;4.00;;
25509;SDS011;13413;52.336;21.200;2023-04-23T12:43:52;5.50;;;3.30;;
25509;SDS011;13413;52.336;21.200;2023-04-23T12:46:48;5.80;;;3.20;;
25509;SDS011;13413;52.336;21.200;2023-04-23T12:49:47;3.80;;;3.10;;
25509;SDS011;13413;52.336;21.200;2023-04-23T12:52:42;8.70;;;3.50;;
25509;SDS011;13413;52.336;21.200;2023-04-23T12:55:36;5.70;;;3.50;;
25509;SDS011;13413;52.336;21.200;2023-04-23T12:58:31;11.70;;;3.70;;
25509;SDS011;13413;52.336;21.200;2023-04-23T13:01:25;4.20;;;3.20;;
25509;SDS011;13413;52.336;21.200;2023-04-23T13:04:19;5.00;;;3.40;;
25509;SDS011;13413;52.336;21.200;2023-04-23T13:07:13;5.90;;;3.70;;
25509;SDS011;13413;52.336;21.200;2023-04-23T13:10:08;5.00;;;3.30;;
25509;SDS011;13413;52.336;21.200;2023-04-23T13:13:03;4.40;;;3.60;;
25509;SDS011;13413;52.336;21.200;2023-04-23T13:16:07;4.60;;;3.50;;
25509;SDS011;13413;52.336;21.200;2023-04-23T13:19:01;5.30;;;3.70;;
25509;SDS011;13413;52.336;21.200;2023-04-23T13:21:55;7.60;;;3.90;;
25509;SDS011;13413;52.336;21.200;2023-04-23T13:24:49;4.50;;;3.20;;
25509;SDS011;13413;52.336;21.200;2023-04-23T13:27:43;4.00;;;3.30;;
25509;SDS011;13413;52.336;21.200;2023-04-23T13:30:38;4.80;;;3.30;;
25509;SDS011;13413;52.336;21.200;2023-04-23T13:33:32;5.90;;;3.80;;
25509;SDS011;13413;52.336;21.200;2023-04-23T13:36:28;3.70;;;3.00;;
25509;SDS011;13413;52.336;21.200;2023-04-23T13:39:22;4.00;;;3.30;;
25509;SDS011;13413;52.336;21.200;2023-04-23T13:42:17;3.80;;;3.10;;
25509;SDS011;13413;52.336;21.200;2023-04-23T13:45:11;4.60;;;3.30;;
25509;SDS011;13413;52.336;21.200;2023-04-23T13:48:05;4.30;;;3.00;;
25509;SDS011;13413;52.336;21.200;2023-04-23T13:51:00;5.60;;;3.50;;
25509;SDS011;13413;52.336;21.200;2023-04-23T13:53:54;5.60;;;3.40;;
25509;SDS011;13413;52.336;21.200;2023-04-23T13:56:48;6.30;;;3.60;;
25509;SDS011;13413;52.336;21.200;2023-04-23T13:59:42;9.50;;;4.10;;
25509;SDS011;13413;52.336;21.200;2023-04-23T14:05:31;5.20;;;3.40;;
25509;SDS011;13413;52.336;21.200;2023-04-23T14:08:24;4.60;;;3.60;;
25509;SDS011;13413;52.336;21.200;2023-04-23T14:11:18;4.30;;;3.30;;
25509;SDS011;13413;52.336;21.200;2023-04-23T14:14:12;5.10;;;3.30;;
25509;SDS011;13413;52.336;21.200;2023-04-23T14:24:08;5.90;;;3.20;;
25509;SDS011;13413;52.336;21.200;2023-04-23T14:27:13;4.70;;;3.60;;
25509;SDS011;13413;52.336;21.200;2023-04-23T14:30:13;4.10;;;3.70;;
25509;SDS011;13413;52.336;21.200;2023-04-23T14:33:08;5.60;;;3.90;;
25509;SDS011;13413;52.336;21.200;2023-04-23T14:36:02;4.00;;;3.10;;
25509;SDS011;13413;52.336;21.200;2023-04-23T14:38:56;3.90;;;3.50;;
25509;SDS011;13413;52.336;21.200;2023-04-23T14:44:44;5.40;;;3.50;;
25509;SDS011;13413;52.336;21.200;2023-04-23T14:47:38;8.00;;;3.30;;
25509;SDS011;13413;52.336;21.200;2023-04-23T14:50:32;4.50;;;3.30;;
25509;SDS011;13413;52.336;21.200;2023-04-23T14:53:26;4.20;;;3.60;;
25509;SDS011;13413;52.336;21.200;2023-04-23T14:56:20;4.70;;;3.90;;
25509;SDS011;13413;52.336;21.200;2023-04-23T14:59:14;3.70;;;2.90;;
25509;SDS011;13413;52.336;21.200;2023-04-23T15:02:08;4.90;;;3.70;;
25509;SDS011;13413;52.336;21.200;2023-04-23T15:05:02;4.60;;;4.10;;
25509;SDS011;13413;52.336;21.200;2023-04-23T15:07:58;5.30;;;3.90;;
25509;SDS011;13413;52.336;21.200;2023-04-23T15:10:52;6.60;;;3.80;;
25509;SDS011;13413;52.336;21.200;2023-04-23T15:13:51;5.40;;;3.30;;
25509;SDS011;13413;52.336;21.200;2023-04-23T15:16:56;5.10;;;4.50;;
25509;SDS011;13413;52.336;21.200;2023-04-23T15:19:50;5.10;;;3.50;;
25509;SDS011;13413;52.336;21.200;2023-04-23T15:22:44;3.90;;;3.10;;
25509;SDS011;13413;52.336;21.200;2023-04-23T15:25:38;4.60;;;3.70;;
25509;SDS011;13413;52.336;21.200;2023-04-23T15:28:32;7.50;;;3.60;;
25509;SDS011;13413;52.336;21.200;2023-04-23T15:31:26;3.80;;;3.20;;
25509;SDS011;13413;52.336;21.200;2023-04-23T15:34:20;6.00;;;3.90;;
25509;SDS011;13413;52.336;21.200;2023-04-23T15:37:14;5.00;;;4.20;;
25509;SDS011;13413;52.336;21.200;2023-04-23T15:40:09;4.50;;;3.50;;
25509;SDS011;13413;52.336;21.200;2023-04-23T15:45:55;5.60;;;4.20;;
25509;SDS011;13413;52.336;21.200;2023-04-23T15:51:42;5.30;;;4.50;;
25509;SDS011;13413;52.336;21.200;2023-04-23T15:54:36;5.20;;;4.10;;
25509;SDS011;13413;52.336;21.200;2023-04-23T15:57:30;8.10;;;6.10;;
25509;SDS011;13413;52.336;21.200;2023-04-23T16:00:24;11.30;;;8.20;;
25509;SDS011;13413;52.336;21.200;2023-04-23T16:03:19;9.80;;;6.30;;
25509;SDS011;13413;52.336;21.200;2023-04-23T16:06:13;9.30;;;7.70;;
25509;SDS011;13413;52.336;21.200;2023-04-23T16:09:07;16.70;;;7.70;;
25509;SDS011;13413;52.336;21.200;2023-04-23T16:12:01;8.50;;;5.50;;
25509;SDS011;13413;52.336;21.200;2023-04-23T16:14:54;6.60;;;4.50;;
25509;SDS011;13413;52.336;21.200;2023-04-23T16:17:48;4.70;;;3.90;;
25509;SDS011;13413;52.336;21.200;2023-04-23T16:20:42;8.50;;;6.20;;
25509;SDS011;13413;52.336;21.200;2023-04-23T16:23:36;4.50;;;3.70;;
25509;SDS011;13413;52.336;21.200;2023-04-23T16:26:30;12.00;;;8.00;;
25509;SDS011;13413;52.336;21.200;2023-04-23T16:29:24;4.80;;;4.40;;
25509;SDS011;13413;52.336;21.200;2023-04-23T16:32:18;3.20;;;3.00;;
25509;SDS011;13413;52.336;21.200;2023-04-23T16:46:27;9.30;;;7.00;;
25509;SDS011;13413;52.336;21.200;2023-04-23T16:49:21;4.10;;;3.70;;
25509;SDS011;13413;52.336;21.200;2023-04-23T16:52:15;10.60;;;5.20;;
25509;SDS011;13413;52.336;21.200;2023-04-23T16:55:09;8.40;;;5.50;;
25509;SDS011;13413;52.336;21.200;2023-04-23T16:58:04;22.20;;;6.30;;
25509;SDS011;13413;52.336;21.200;2023-04-23T17:00:59;9.70;;;4.70;;
25509;SDS011;13413;52.336;21.200;2023-04-23T17:03:52;6.80;;;4.50;;
25509;SDS011;13413;52.336;21.200;2023-04-23T17:06:47;9.40;;;5.00;;
25509;SDS011;13413;52.336;21.200;2023-04-23T17:09:40;7.90;;;5.50;;
25509;SDS011;13413;52.336;21.200;2023-04-23T17:12:35;6.40;;;5.50;;
25509;SDS011;13413;52.336;21.200;2023-04-23T17:15:29;7.20;;;6.00;;
25509;SDS011;13413;52.336;21.200;2023-04-23T17:18:22;7.70;;;6.40;;
25509;SDS011;13413;52.336;21.200;2023-04-23T17:21:17;7.90;;;6.60;;
25509;SDS011;13413;52.336;21.200;2023-04-23T17:24:11;12.60;;;8.50;;
25509;SDS011;13413;52.336;21.200;2023-04-23T17:27:05;14.00;;;10.00;;
25509;SDS011;13413;52.336;21.200;2023-04-23T17:29:59;9.50;;;7.90;;
25509;SDS011;13413;52.336;21.200;2023-04-23T17:32:52;13.70;;;11.60;;
25509;SDS011;13413;52.336;21.200;2023-04-23T17:35:46;9.40;;;7.40;;
25509;SDS011;13413;52.336;21.200;2023-04-23T17:38:41;8.00;;;6.90;;
25509;SDS011;13413;52.336;21.200;2023-04-23T17:41:36;20.10;;;6.20;;
25509;SDS011;13413;52.336;21.200;2023-04-23T17:44:29;15.10;;;5.70;;
25509;SDS011;13413;52.336;21.200;2023-04-23T17:47:24;8.60;;;5.70;;
25509;SDS011;13413;52.336;21.200;2023-04-23T17:50:18;10.70;;;5.40;;
25509;SDS011;13413;52.336;21.200;2023-04-23T17:53:11;11.40;;;6.90;;
25509;SDS011;13413;52.336;21.200;2023-04-23T17:56:06;15.30;;;9.60;;
25509;SDS011;13413;52.336;21.200;2023-04-23T17:59:00;16.80;;;14.50;;
25509;SDS011;13413;52.336;21.200;2023-04-23T18:01:54;13.20;;;11.80;;
25509;SDS011;13413;52.336;21.200;2023-04-23T18:04:48;10.50;;;7.80;;
25509;SDS011;13413;52.336;21.200;2023-04-23T18:07:42;9.40;;;6.40;;
25509;SDS011;13413;52.336;21.200;2023-04-23T18:10:36;9.30;;;6.90;;
25509;SDS011;13413;52.336;21.200;2023-04-23T18:13:30;11.90;;;8.60;;
25509;SDS011;13413;52.336;21.200;2023-04-23T18:19:19;10.40;;;5.90;;
25509;SDS011;13413;52.336;21.200;2023-04-23T18:22:14;7.60;;;5.70;;
25509;SDS011;13413;52.336;21.200;2023-04-23T18:25:08;11.50;;;5.90;;
25509;SDS011;13413;52.336;21.200;2023-04-23T18:28:03;7.00;;;5.50;;
25509;SDS011;13413;52.336;21.200;2023-04-23T18:30:56;9.60;;;5.70;;
25509;SDS011;13413;52.336;21.200;2023-04-23T18:33:52;9.70;;;6.70;;
25509;SDS011;13413;52.336;21.200;2023-04-23T18:36:52;8.50;;;5.40;;
25509;SDS011;13413;52.336;21.200;2023-04-23T18:39:46;12.80;;;6.00;;
25509;SDS011;13413;52.336;21.200;2023-04-23T18:42:40;9.70;;;6.10;;